Time;durP1;ratioP1;P1;durP2;ratioP2;P2;SDS_P1;SDS_P2;PMS_P1;PMS_P2;Temp;Humidity;BMP_temperature;BMP_pressure;BME280_temperature;BME280_humidity;BME280_pressure;Samples;Min_cycle;Max_cycle;Signal;HPM_P1;HPM_P2
2022/10/19 00:03:56;;;;;;;19.77;15.63;;;;;;;12.81;84.72;100993.41;3584565;78;21012;-72
2022/10/19 00:08:47;;;;;;;18.60;16.05;;;;;;;12.81;84.73;100999.92;3492545;78;21231;-72
2022/10/19 00:13:39;;;;;;;17.75;14.13;;;;;;;12.78;84.58;100997.27;3500504;78;20916;-73
2022/10/19 00:18:30;;;;;;;14.00;12.47;;;;;;;12.71;84.37;100988.48;3528473;78;20978;-73
2022/10/19 00:23:21;;;;;;;13.20;11.80;;;;;;;12.56;84.22;100985.26;3535127;78;20944;-73
2022/10/19 00:28:12;;;;;;;13.65;12.10;;;;;;;12.46;84.05;100993.80;3534770;78;21589;-72
2022/10/19 00:33:04;;;;;;;11.93;9.63;;;;;;;12.35;84.07;100994.09;3508573;78;21019;-72
2022/10/19 00:37:55;;;;;;;11.30;8.88;;;;;;;12.29;84.14;101000.10;3534681;78;20986;-72
2022/10/19 00:42:46;;;;;;;10.58;8.13;;;;;;;12.27;84.02;101000.92;3504255;78;21405;-72
2022/10/19 00:47:38;;;;;;;11.15;8.30;;;;;;;12.22;83.65;100998.27;3562602;79;20887;-73
2022/10/19 00:52:30;;;;;;;10.82;6.85;;;;;;;12.10;83.23;101000.24;3472849;79;21525;-72
2022/10/19 00:57:25;;;;;;;9.80;6.80;;;;;;;11.96;83.09;101000.45;3517721;78;20985;-72
2022/10/19 01:02:16;;;;;;;10.43;7.20;;;;;;;11.82;83.04;100991.98;3518043;78;21010;-72
2022/10/19 01:07:07;;;;;;;7.65;6.90;;;;;;;11.69;83.12;101000.42;3548296;78;21648;-72
2022/10/19 01:12:13;;;;;;;10.08;7.50;;;;;;;11.53;82.85;100991.91;3543705;77;20948;-72
2022/10/19 01:17:19;;;;;;;10.30;6.80;;;;;;;11.39;82.88;100991.25;3518654;78;20923;-72
2022/10/19 01:22:57;;;;;;;12.15;6.62;;;;;;;11.24;82.98;100980.11;3545788;77;21571;-72
2022/10/19 01:28:35;;;;;;;8.73;6.65;;;;;;;11.12;82.98;100977.70;3546322;78;21019;-72
2022/10/19 01:33:38;;;;;;;10.72;7.08;;;;;;;10.99;83.08;100969.66;3561137;77;23837;-73
2022/10/19 01:38:50;;;;;;;9.93;8.68;;;;;;;10.91;83.29;100969.95;3558446;78;20978;-72
2022/10/19 01:44:02;;;;;;;11.97;8.88;;;;;;;10.91;83.64;100966.05;3562242;77;20944;-72
2022/10/19 01:49:05;;;;;;;13.53;10.43;;;;;;;10.95;83.81;100963.09;3547563;78;20992;-72
2022/10/19 01:54:01;;;;;;;12.70;9.53;;;;;;;11.00;84.06;100958.42;3546259;78;21034;-72
2022/10/19 01:58:57;;;;;;;12.17;9.43;;;;;;;11.08;84.28;100948.15;3524256;78;20916;-72
2022/10/19 02:03:49;;;;;;;15.18;11.50;;;;;;;11.12;84.25;100949.08;3563790;78;21391;-72
2022/10/19 02:08:48;;;;;;;19.70;12.65;;;;;;;11.15;84.47;100950.02;3582934;78;20924;-73
2022/10/19 02:13:41;;;;;;;14.98;12.45;;;;;;;11.18;84.55;100946.61;3540382;78;21534;-73
2022/10/19 02:18:44;;;;;;;16.10;12.00;;;;;;;11.15;84.65;100940.04;3518896;77;20984;-72
2022/10/19 02:23:35;;;;;;;18.05;12.53;;;;;;;11.15;84.74;100931.80;3553772;78;20980;-72
2022/10/19 02:28:29;;;;;;;13.70;11.90;;;;;;;11.17;84.96;100930.53;3534199;78;20967;-72
2022/10/19 02:33:21;;;;;;;14.25;11.78;;;;;;;11.23;84.99;100930.62;3519120;78;20967;-73
2022/10/19 02:38:17;;;;;;;13.53;10.32;;;;;;;11.29;84.90;100932.48;3521736;77;21039;-72
2022/10/19 02:43:13;;;;;;;14.18;10.93;;;;;;;11.32;84.78;100930.81;3560485;78;21537;-72
2022/10/19 02:48:12;;;;;;;14.80;9.78;;;;;;;11.31;84.73;100925.14;3539745;78;20950;-73
2022/10/19 02:53:04;;;;;;;15.20;10.32;;;;;;;11.33;84.66;100923.44;3524339;77;21030;-72
2022/10/19 02:57:56;;;;;;;16.37;10.55;;;;;;;11.34;84.62;100929.52;3518903;78;20959;-71
2022/10/19 03:02:47;;;;;;;15.65;11.63;;;;;;;11.32;84.52;100919.10;3552463;78;21292;-72
2022/10/19 03:07:38;;;;;;;15.10;11.10;;;;;;;11.28;84.36;100917.27;3523560;78;21490;-72
2022/10/19 03:12:29;;;;;;;16.70;9.90;;;;;;;11.21;84.20;100912.81;3527937;78;21717;-73
2022/10/19 03:17:21;;;;;;;14.23;10.15;;;;;;;11.15;84.31;100917.92;3505585;78;21174;-72
2022/10/19 03:22:17;;;;;;;16.00;11.85;;;;;;;11.06;84.26;100915.59;3538097;78;20951;-73
2022/10/19 03:27:06;;;;;;;12.98;9.38;;;;;;;10.96;84.22;100908.45;3572095;77;21915;-72
2022/10/19 03:31:57;;;;;;;15.70;10.05;;;;;;;10.87;84.31;100912.20;3540523;77;20978;-72
2022/10/19 03:36:49;;;;;;;13.78;10.70;;;;;;;10.80;84.31;100909.02;3501030;77;20951;-72
2022/10/19 03:41:41;;;;;;;16.12;11.00;;;;;;;10.73;84.34;100907.16;3491104;78;21608;-72
2022/10/19 03:46:34;;;;;;;13.98;10.10;;;;;;;10.68;84.35;100898.85;3559215;78;20976;-73
2022/10/19 03:51:28;;;;;;;14.98;9.80;;;;;;;10.64;84.35;100899.64;3551710;78;20879;-72
2022/10/19 03:56:23;;;;;;;13.53;9.93;;;;;;;10.60;84.46;100896.51;3476616;77;21181;-72
2022/10/19 04:01:22;;;;;;;11.90;9.95;;;;;;;10.58;84.40;100907.31;3494701;77;20982;-73
2022/10/19 04:06:16;;;;;;;14.03;9.70;;;;;;;10.59;84.59;100901.71;3521979;77;20980;-72
2022/10/19 04:11:13;;;;;;;15.65;11.57;;;;;;;10.62;84.69;100896.14;3523660;77;21014;-72
2022/10/19 04:16:05;;;;;;;;;;;;;;;10.63;84.73;100890.08;3592860;77;22010;-73
2022/10/19 04:26:39;;;;;;;12.28;9.03;;;;;;;10.69;84.64;100893.22;3552030;78;20927;-73
2022/10/19 04:31:30;;;;;;;16.67;10.03;;;;;;;10.71;84.71;100887.61;3533865;78;20900;-73
2022/10/19 04:36:23;;;;;;;19.77;10.08;;;;;;;10.75;84.69;100885.95;3524771;78;20956;-74
2022/10/19 04:41:17;;;;;;;16.67;10.40;;;;;;;10.79;84.57;100886.48;3554176;78;21489;-73
2022/10/19 04:46:18;;;;;;;10.63;9.03;;;;;;;10.80;84.90;100881.31;3476774;78;21490;-73
2022/10/19 04:51:20;;;;;;;15.80;9.70;;;;;;;10.80;84.34;100882.62;3518407;78;20979;-73
2022/10/19 04:56:22;;;;;;;17.70;9.83;;;;;;;10.83;84.47;100883.08;3547084;77;20881;-74
2022/10/19 05:01:42;;;;;;;13.88;9.40;;;;;;;10.85;84.25;100869.67;3511433;78;20967;-73
2022/10/19 05:06:32;;;;;;;15.10;10.45;;;;;;;10.84;84.25;100866.20;3555190;77;20947;-74
2022/10/19 05:11:25;;;;;;;19.35;8.65;;;;;;;10.85;84.14;100868.38;3568592;78;21098;-74
2022/10/19 05:16:20;;;;;;;12.60;8.48;;;;;;;10.84;83.98;100862.30;3469575;78;20960;-73
2022/10/19 05:21:13;;;;;;;7.92;6.97;;;;;;;10.83;83.78;100855.34;3538329;78;20959;-74
2022/10/19 05:26:09;;;;;;;11.25;7.80;;;;;;;10.84;83.76;100850.60;3527054;78;21474;-74
2022/10/19 05:31:13;;;;;;;17.90;7.47;;;;;;;10.83;83.61;100853.17;3546676;78;21169;-74
2022/10/19 05:36:26;;;;;;;11.18;6.65;;;;;;;10.85;83.73;100856.67;3519963;77;21545;-73
2022/10/19 05:41:19;;;;;;;11.50;7.58;;;;;;;10.85;83.53;100854.94;3551309;78;20951;-73
2022/10/19 05:46:16;;;;;;;10.90;7.80;;;;;;;10.88;83.40;100859.34;3552333;78;21500;-73
2022/10/19 05:51:11;;;;;;;;;;;;;;;10.89;83.36;100862.38;3513203;77;20956;-73
2022/10/19 05:56:08;;;;;;;10.10;7.10;;;;;;;10.92;83.05;100867.64;3521500;78;21097;-74
2022/10/19 06:01:01;;;;;;;10.63;7.20;;;;;;;10.99;82.91;100865.59;3550212;78;20935;-73
2022/10/19 06:05:54;;;;;;;11.22;6.53;;;;;;;11.03;82.86;100870.43;3517304;78;20969;-73
2022/10/19 06:10:47;;;;;;;8.55;5.60;;;;;;;11.10;82.63;100863.61;3515302;78;21149;-74
2022/10/19 06:15:39;;;;;;;10.40;5.92;;;;;;;11.17;82.22;100865.47;3495745;77;20914;-75
2022/10/19 06:20:32;;;;;;;12.00;6.47;;;;;;;11.18;81.87;100852.92;3544395;78;21450;-74
2022/10/19 06:25:23;;;;;;;10.88;6.37;;;;;;;11.24;81.72;100856.48;3600432;77;21524;-74
2022/10/19 06:30:24;;;;;;;8.55;5.37;;;;;;;11.47;81.08;100852.52;3551740;78;20943;-74
2022/10/19 06:35:21;;;;;;;10.15;5.97;;;;;;;11.49;81.23;100852.97;3566945;78;21714;-74
2022/10/19 06:40:13;;;;;;;7.47;4.92;;;;;;;11.54;80.90;100851.75;3511439;78;20982;-72
2022/10/19 06:45:19;;;;;;;9.73;5.50;;;;;;;11.59;80.85;100861.81;3530179;77;22316;-73
2022/10/19 06:50:10;;;;;;;11.30;5.33;;;;;;;11.89;79.87;100857.88;3511337;78;20984;-74
2022/10/19 06:55:24;;;;;;;6.87;4.65;;;;;;;11.96;79.83;100857.14;3483875;78;20920;-73
2022/10/19 07:00:13;;;;;;;7.55;4.97;;;;;;;11.95;79.71;100860.19;3506963;79;20995;-73
2022/10/19 07:05:06;;;;;;;10.53;4.75;;;;;;;12.01;79.79;100856.78;3520660;79;21070;-73
2022/10/19 07:09:57;;;;;;;7.00;5.28;;;;;;;12.01;79.75;100856.78;3429949;79;21131;-73
2022/10/19 07:14:48;;;;;;;7.28;4.30;;;;;;;11.90;79.96;100859.65;3494614;78;20931;-72
2022/10/19 07:19:39;;;;;;;8.63;5.47;;;;;;;11.83;80.15;100866.06;3532898;78;20948;-73
2022/10/19 07:24:34;;;;;;;7.17;5.08;;;;;;;11.72;80.06;100856.36;3536809;78;22134;-73
2022/10/19 07:29:46;;;;;;;9.68;5.67;;;;;;;11.65;80.01;100865.80;3560574;77;20983;-74
2022/10/19 07:34:37;;;;;;;5.85;5.30;;;;;;;11.60;80.21;100876.13;3531365;77;21127;-73
2022/10/19 07:39:38;;;;;;;6.42;3.98;;;;;;;11.53;80.28;100872.98;3557138;78;20913;-74
2022/10/19 07:45:00;;;;;;;4.90;3.60;;;;;;;11.85;79.61;100867.83;3547105;78;20888;-76
2022/10/19 07:50:21;;;;;;;;;;;;;;;;;;;;;
2022/10/19 08:11:35;;;;;;;;;;;;;;;;;;;;;
2022/10/19 08:16:47;;;;;;;4.33;3.27;;;;;;;11.98;78.17;100874.97;3026120;90;21538;-76
2022/10/19 08:22:21;;;;;;;3.33;3.08;;;;;;;12.20;78.18;100862.69;3110901;89;21052;-74
2022/10/19 08:27:42;;;;;;;5.70;3.10;;;;;;;12.37;77.98;100864.62;3095072;89;21095;-75
2022/10/19 08:44:24;;;;;;;3.65;2.62;;;;;;;12.63;77.49;100861.45;2651944;103;21186;-76
2022/10/19 09:02:07;;;;;;;;;;;;;;;;;;;;;
2022/10/19 09:14:13;;;;;;;;;;;;;;;;;;;;;
2022/10/19 09:19:28;;;;;;;3.05;2.22;;;;;;;12.28;78.41;100872.33;2843366;98;21075;-72
2022/10/19 09:24:28;;;;;;;4.37;2.83;;;;;;;12.30;78.63;100868.88;2829776;97;21067;-73
2022/10/19 09:30:07;;;;;;;3.00;2.72;;;;;;;12.18;78.79;100882.65;2807312;97;21327;-74
2022/10/19 09:59:07;;;;;;;5.03;3.37;;;;;;;12.63;79.88;100896.66;2851101;98;21595;-74
2022/10/19 10:05:02;;;;;;;3.92;3.42;;;;;;;12.74;79.42;100897.66;2792035;101;21220;-75
2022/10/19 10:33:06;;;;;;;1.55;1.02;;;;;;;11.34;79.26;100942.13;3325496;83;21484;-73
2022/10/19 11:08:17;;;;;;;;;;;;;;;;;;;;;
2022/10/19 11:37:29;;;;;;;1.45;0.70;;;;;;;16.06;71.56;100917.03;3139417;89;21030;-74
2022/10/19 12:02:16;;;;;;;1.85;1.00;;;;;;;16.00;71.20;100933.66;3243271;86;21531;-75
2022/10/19 12:13:59;;;;;;;1.62;1.05;;;;;;;14.95;71.68;100928.79;3362370;82;21522;-75
2022/10/19 12:19:13;;;;;;;;;;;;;;;;;;;;;
2022/10/19 12:24:14;;;;;;;1.17;0.88;;;;;;;14.42;70.57;100925.11;3400946;79;20989;-74
2022/10/19 12:29:43;;;;;;;;;;;;;;;;;;;;;
2022/10/19 12:34:53;;;;;;;4.25;2.00;;;;;;;13.70;70.57;100949.94;3432437;82;21736;-73
2022/10/19 12:40:00;;;;;;;2.12;1.40;;;;;;;13.34;68.72;100951.38;3384201;82;21710;-74
2022/10/19 12:45:40;;;;;;;3.77;1.90;;;;;;;12.98;67.60;100957.05;3399608;81;21342;-74
2022/10/19 12:50:59;;;;;;;2.70;1.65;;;;;;;12.66;68.11;100957.98;3472403;80;21132;-74
2022/10/19 13:20:03;;;;;;;;;;;;;;;;;;;;;
2022/10/19 13:36:23;;;;;;;1.20;0.95;;;;;;;14.23;63.83;100971.20;2727122;100;21161;-73
2022/10/19 13:41:46;;;;;;;0.68;0.60;;;;;;;13.69;64.19;100994.34;2819470;98;23846;-73
2022/10/19 13:46:43;;;;;;;3.42;1.65;;;;;;;13.09;64.71;101009.37;2928721;94;21050;-73
2022/10/19 13:52:07;;;;;;;2.72;1.37;;;;;;;12.48;64.93;101023.83;2974177;94;21546;-73
2022/10/19 13:57:39;;;;;;;1.77;1.05;;;;;;;12.11;65.70;101019.39;2970839;94;21062;-73
2022/10/19 14:02:59;;;;;;;1.70;0.90;;;;;;;11.95;65.89;101030.86;3233805;83;20967;-73
2022/10/19 14:08:37;;;;;;;2.58;0.95;;;;;;;11.76;65.85;101036.58;3325517;83;21050;-73
2022/10/19 14:13:31;;;;;;;1.30;0.85;;;;;;;11.47;65.95;101034.34;3343007;83;21271;-73
2022/10/19 14:18:45;;;;;;;1.85;0.98;;;;;;;11.39;65.74;101034.61;3353418;83;21007;-73
2022/10/19 14:23:39;;;;;;;1.72;1.55;;;;;;;11.30;66.23;101031.40;3294652;83;21035;-73
2022/10/19 14:28:33;;;;;;;2.08;1.27;;;;;;;11.29;66.35;101049.19;3468920;78;21986;-73
2022/10/19 14:33:32;;;;;;;2.58;1.17;;;;;;;11.16;66.41;101052.38;3557754;78;20932;-74
2022/10/19 14:38:34;;;;;;;3.85;1.22;;;;;;;11.11;66.64;101056.64;3527713;78;21485;-73
2022/10/19 14:43:31;;;;;;;1.50;1.20;;;;;;;10.98;66.54;101069.39;3572877;78;20967;-73
2022/10/19 14:48:23;;;;;;;2.20;1.45;;;;;;;10.88;66.29;101076.55;3535163;78;20956;-73
2022/10/19 14:53:34;;;;;;;2.10;1.50;;;;;;;10.72;66.35;101074.03;3560378;78;21930;-74
2022/10/19 14:58:31;;;;;;;6.87;4.65;;;;;;;10.54;66.35;101078.39;3548106;78;21006;-74
2022/10/19 15:03:26;;;;;;;2.60;1.60;;;;;;;10.36;66.75;101084.05;3524715;77;21310;-74
2022/10/19 15:08:23;;;;;;;4.60;2.58;;;;;;;10.34;67.15;101100.03;3554696;78;20992;-74
2022/10/19 15:13:33;;;;;;;2.20;2.00;;;;;;;10.36;67.27;101105.27;3581595;78;20952;-73
2022/10/19 15:18:32;;;;;;;1.57;1.37;;;;;;;10.29;67.33;101101.17;3582017;78;21041;-73
2022/10/19 15:23:47;;;;;;;2.00;0.98;;;;;;;10.17;67.53;101104.77;3590525;77;21030;-74
2022/10/19 15:28:42;;;;;;;4.00;1.50;;;;;;;10.00;67.54;101106.09;3586864;78;20983;-75
2022/10/19 15:33:48;;;;;;;1.65;1.17;;;;;;;9.83;67.98;101113.42;3514285;78;20949;-72
2022/10/19 15:38:43;;;;;;;1.72;1.17;;;;;;;9.64;67.94;101122.03;3527959;78;21009;-72
2022/10/19 15:43:40;;;;;;;2.87;1.50;;;;;;;9.52;68.04;101131.65;3551062;78;20908;-72
2022/10/19 15:48:48;;;;;;;6.95;4.33;;;;;;;9.31;68.06;101149.20;3477547;78;21209;-72
2022/10/19 15:53:39;;;;;;;8.65;4.80;;;;;;;9.31;68.06;101149.20;3490869;78;20951;-72
2022/10/19 15:58:31;;;;;;;8.30;4.47;;;;;;;9.22;67.99;101148.52;3530601;78;20909;-73
2022/10/19 16:03:24;;;;;;;9.65;3.83;;;;;;;9.10;68.15;101159.43;3547324;78;20956;-72
2022/10/19 16:08:17;;;;;;;6.30;5.00;;;;;;;9.11;68.18;101172.84;3516852;78;20975;-72
2022/10/19 16:13:13;;;;;;;5.58;3.72;;;;;;;9.02;68.18;101177.76;3527648;77;21461;-72
2022/10/19 16:18:06;;;;;;;4.85;3.60;;;;;;;8.93;68.24;101183.97;3548054;78;20993;-72
2022/10/19 16:22:57;;;;;;;10.35;4.00;;;;;;;8.84;68.32;101193.63;3465957;78;20983;-73
2022/10/19 16:27:48;;;;;;;6.62;3.92;;;;;;;8.70;68.44;101197.06;3518029;78;21481;-72
2022/10/19 16:32:40;;;;;;;12.45;6.08;;;;;;;8.64;68.63;101203.36;3486269;79;20918;-72
2022/10/19 16:37:31;;;;;;;7.72;5.60;;;;;;;8.56;68.95;101219.94;3489947;79;22026;-72
2022/10/19 16:42:22;;;;;;;14.95;9.53;;;;;;;8.48;69.10;101214.06;3538199;78;20882;-72
2022/10/19 16:47:15;;;;;;;15.58;10.43;;;;;;;8.39;69.12;101225.83;3546591;78;37251;-72
2022/10/19 16:52:07;;;;;;;16.40;8.18;;;;;;;8.30;69.51;101222.03;3519057;77;20939;-72
2022/10/19 16:56:58;;;;;;;15.98;10.00;;;;;;;8.25;69.37;101240.02;3496963;78;20992;-72
2022/10/19 17:01:53;;;;;;;14.50;6.62;;;;;;;8.17;69.54;101244.05;3538461;77;20956;-72
2022/10/19 17:06:45;;;;;;;13.38;7.97;;;;;;;8.09;69.75;101251.98;3513579;78;20936;-73
2022/10/19 17:11:38;;;;;;;12.53;6.35;;;;;;;7.91;70.04;101255.66;3511263;79;21058;-72
2022/10/19 17:22:04;;;;;;;12.25;6.95;;;;;;;7.85;70.13;101267.06;3587175;77;21007;-71
2022/10/19 17:27:00;;;;;;;14.35;6.78;;;;;;;7.78;70.14;101274.14;3473648;79;21630;-71
2022/10/19 17:31:54;;;;;;;11.55;6.65;;;;;;;7.70;70.52;101279.45;3544020;79;20935;-71
2022/10/19 17:36:46;;;;;;;12.80;6.15;;;;;;;7.58;70.48;101284.66;3512697;79;20942;-72
2022/10/19 17:41:37;;;;;;;7.47;5.45;;;;;;;7.53;70.70;101287.47;3499912;77;21421;-72
2022/10/19 17:46:32;;;;;;;7.37;4.00;;;;;;;7.45;70.99;101291.45;3523383;79;21240;-73
2022/10/19 17:51:29;;;;;;;5.80;3.45;;;;;;;7.39;71.10;101309.34;3518534;79;21886;-72
2022/10/19 17:56:21;;;;;;;5.95;3.35;;;;;;;7.27;71.20;101311.02;3555461;78;20972;-72
2022/10/19 18:01:15;;;;;;;4.70;3.40;;;;;;;7.16;71.37;101309.30;3535587;79;21444;-71
2022/10/19 18:06:19;;;;;;;6.17;3.60;;;;;;;7.07;71.50;101314.09;3477125;79;21457;-72
2022/10/19 18:11:19;;;;;;;7.12;5.20;;;;;;;6.93;71.93;101321.28;3466527;79;21210;-71
2022/10/19 18:16:15;;;;;;;5.45;3.02;;;;;;;6.93;71.93;101321.28;3515181;79;22037;-71
2022/10/19 18:21:10;;;;;;;9.33;3.22;;;;;;;6.84;71.86;101321.78;3534613;79;20934;-72
2022/10/19 18:26:08;;;;;;;16.60;4.28;;;;;;;6.75;71.96;101329.16;3537685;79;20919;-71
2022/10/19 18:31:19;;;;;;;5.08;3.45;;;;;;;6.68;72.12;101327.12;3484458;77;20947;-73
2022/10/19 18:36:26;;;;;;;7.75;4.00;;;;;;;6.60;72.41;101328.09;3509459;79;20959;-72
2022/10/19 18:41:18;;;;;;;7.55;4.10;;;;;;;6.57;72.53;101336.13;3536824;79;21674;-71
2022/10/19 18:46:10;;;;;;;8.83;3.37;;;;;;;6.58;72.76;101324.95;3541169;79;21429;-71
2022/10/19 18:51:08;;;;;;;4.90;3.67;;;;;;;6.55;72.80;101328.31;3529332;79;21078;-71
2022/10/19 18:56:05;;;;;;;5.65;3.65;;;;;;;6.48;72.79;101342.66;3518252;79;21255;-72
2022/10/19 19:01:09;;;;;;;6.17;3.52;;;;;;;6.41;72.85;101348.36;3486732;79;21694;-71
2022/10/19 19:06:05;;;;;;;6.47;3.77;;;;;;;6.36;73.12;101352.86;3496540;79;22404;-71
2022/10/19 19:11:09;;;;;;;4.35;2.92;;;;;;;6.28;73.19;101355.11;3570109;79;20970;-71
2022/10/19 19:16:02;;;;;;;8.78;3.98;;;;;;;6.21;73.36;101360.40;3529709;78;20885;-72
2022/10/19 19:20:54;;;;;;;6.22;3.77;;;;;;;6.17;73.59;101359.80;3525577;79;21003;-71
2022/10/19 19:26:11;;;;;;;5.92;3.62;;;;;;;6.11;73.71;101364.25;3535563;79;20993;-71
2022/10/19 19:31:09;;;;;;;7.87;4.60;;;;;;;6.08;73.95;101374.46;3481577;79;21796;-71
2022/10/19 19:36:06;;;;;;;6.12;4.17;;;;;;;6.06;74.06;101383.84;3475203;79;20978;-71
2022/10/19 19:40:57;;;;;;;6.87;4.30;;;;;;;6.02;74.15;101393.52;3510184;79;21003;-72
2022/10/19 19:45:57;;;;;;;9.73;4.65;;;;;;;5.98;74.36;101396.78;3472709;78;20998;-71
2022/10/19 19:50:48;;;;;;;5.00;3.58;;;;;;;5.94;74.42;101394.84;3492719;79;20996;-72
2022/10/19 19:55:39;;;;;;;6.67;4.40;;;;;;;5.94;74.69;101400.02;3492185;78;21060;-73
2022/10/19 20:00:31;;;;;;;5.78;4.15;;;;;;;5.90;74.70;101408.02;3462775;78;20960;-71
2022/10/19 20:05:24;;;;;;;5.78;3.87;;;;;;;5.88;74.74;101418.69;3534752;77;20988;-72
2022/10/19 20:10:15;;;;;;;6.65;3.75;;;;;;;5.85;74.89;101418.94;3567507;78;21271;-72
2022/10/19 20:25:52;;;;;;;6.37;4.17;;;;;;;5.74;75.23;101446.78;3256098;86;21075;-72
2022/10/19 20:30:44;;;;;;;8.75;4.50;;;;;;;5.69;75.28;101449.16;3211016;86;22176;-72
2022/10/19 20:35:40;;;;;;;7.15;3.90;;;;;;;5.68;75.44;101449.95;3227653;85;21043;-72
2022/10/19 20:41:00;;;;;;;5.80;3.55;;;;;;;5.67;75.41;101453.75;3157473;88;22258;-73
2022/10/19 20:45:53;;;;;;;4.85;3.12;;;;;;;5.60;75.41;101461.62;3028929;91;21106;-72
2022/10/19 20:51:09;;;;;;;;;;;;;;;;;;;;;
2022/10/19 20:55:58;;;;;;;6.95;4.35;;;;;;;5.48;75.78;101474.78;3026349;92;21155;-72
2022/10/19 21:01:08;;;;;;;;;;;;;;;;;;;;;
2022/10/19 21:05:59;;;;;;;6.42;4.37;;;;;;;5.37;75.90;101477.66;3136985;89;21043;-73
2022/10/19 21:10:52;;;;;;;7.87;5.08;;;;;;;5.37;76.15;101478.95;3148675;88;21003;-72
2022/10/19 21:15:59;;;;;;;;;;;;;;;;;;;;;
2022/10/19 21:20:53;;;;;;;7.10;5.30;;;;;;;5.28;76.29;101476.38;3230304;83;21132;-72
2022/10/19 21:25:53;;;;;;;6.00;4.85;;;;;;;5.18;76.03;101480.57;3322414;83;21150;-72
2022/10/19 21:36:09;;;;;;;6.25;4.28;;;;;;;5.06;76.51;101495.02;3280453;84;21660;-73
2022/10/19 21:41:06;;;;;;;8.08;5.60;;;;;;;5.02;76.88;101490.91;3263921;84;21038;-73
2022/10/19 21:46:33;;;;;;;4.75;4.05;;;;;;;4.96;76.75;101493.64;3250612;85;21560;-73
2022/10/19 21:52:01;;;;;;;;;;;;;;;;;;;;;
2022/10/19 21:56:50;;;;;;;6.03;3.77;;;;;;;4.88;77.03;101496.62;3132232;88;21172;-73
2022/10/19 22:01:43;;;;;;;7.30;2.87;;;;;;;4.82;77.17;101486.88;3139855;88;21550;-72
2022/10/19 22:06:42;;;;;;;5.37;3.95;;;;;;;4.79;77.44;101491.87;3050440;90;21783;-73
2022/10/19 22:11:33;;;;;;;7.90;3.42;;;;;;;4.79;77.63;101488.00;3149805;87;21054;-71
2022/10/19 22:16:26;;;;;;;5.40;3.55;;;;;;;4.75;77.66;101488.24;3178200;86;21154;-72
2022/10/19 22:21:21;;;;;;;5.67;3.55;;;;;;;4.74;77.86;101495.92;3164084;86;21038;-72
2022/10/19 22:26:26;;;;;;;5.08;4.12;;;;;;;4.72;77.82;101502.66;3188967;87;21255;-73
2022/10/19 22:31:18;;;;;;;5.00;4.22;;;;;;;4.65;78.02;101503.12;3262812;80;21465;-72
2022/10/19 22:36:11;;;;;;;5.20;2.72;;;;;;;4.61;78.02;101507.64;3371249;80;21142;-71
2022/10/19 22:41:04;;;;;;;5.47;3.40;;;;;;;4.55;77.86;101505.22;3411319;80;21043;-72
2022/10/19 22:45:56;;;;;;;4.80;3.25;;;;;;;4.48;77.65;101513.41;3369441;81;21264;-72
2022/10/19 22:50:47;;;;;;;3.67;3.35;;;;;;;4.40;77.90;101523.72;3410034;80;21183;-72
2022/10/19 22:55:38;;;;;;;5.42;3.90;;;;;;;4.36;78.21;101518.80;3369545;80;21004;-72
2022/10/19 23:00:29;;;;;;;5.35;3.70;;;;;;;4.33;78.30;101532.78;3396823;81;21055;-73
2022/10/19 23:05:20;;;;;;;5.55;3.65;;;;;;;4.29;78.31;101524.80;3408643;81;20980;-72
2022/10/19 23:10:12;;;;;;;6.95;4.08;;;;;;;4.24;78.05;101532.66;3380821;80;20996;-72
2022/10/19 23:15:04;;;;;;;5.72;4.55;;;;;;;4.21;78.53;101538.53;3385391;80;21224;-71
2022/10/19 23:19:55;;;;;;;5.55;3.95;;;;;;;4.20;78.71;101540.61;3423824;80;21126;-72
2022/10/19 23:24:46;;;;;;;5.35;3.65;;;;;;;4.17;78.73;101543.91;3398204;80;21645;-71
2022/10/19 23:29:37;;;;;;;6.87;4.78;;;;;;;4.13;78.66;101548.41;3381709;80;21101;-72
2022/10/19 23:34:28;;;;;;;9.15;4.87;;;;;;;4.09;78.78;101548.14;3389870;80;21660;-72
2022/10/19 23:39:19;;;;;;;6.15;4.37;;;;;;;4.07;78.87;101554.48;3380138;81;21043;-71
2022/10/19 23:44:10;;;;;;;6.65;3.83;;;;;;;4.01;78.93;101556.31;3409583;80;21501;-72
2022/10/19 23:49:01;;;;;;;4.37;3.15;;;;;;;4.01;79.18;101569.59;3427996;81;21608;-72
2022/10/19 23:53:53;;;;;;;4.00;2.83;;;;;;;3.96;78.91;101580.02;3435062;80;20917;-72
2022/10/19 23:58:45;;;;;;;5.15;4.55;;;;;;;3.91;78.93;101586.58;3406737;80;20968;-71
